createdAt,value
2018-02-03T00:00:50.714Z,70.60
2018-02-03T00:03:18.640Z,70.80
2018-02-03T00:05:46.560Z,70.60
2018-02-03T00:08:14.432Z,70.60
2018-02-03T00:10:42.390Z,70.70
2018-02-03T00:13:10.279Z,70.80
2018-02-03T00:15:38.167Z,70.90
2018-02-03T00:18:06.072Z,70.90
2018-02-03T00:20:34.028Z,70.80
2018-02-03T00:23:02.713Z,70.80
2018-02-03T00:25:31.450Z,70.80
2018-02-03T00:27:59.390Z,70.80
2018-02-03T00:30:27.267Z,70.80
2018-02-03T00:32:55.192Z,70.80
2018-02-03T00:35:23.865Z,71.00
2018-02-03T00:37:51.742Z,71.00
2018-02-03T00:40:20.476Z,71.20
2018-02-03T00:42:48.336Z,71.00
2018-02-03T00:45:16.317Z,71.20
2018-02-03T00:47:44.277Z,71.20
2018-02-03T00:50:12.139Z,71.20
2018-02-03T00:52:40.080Z,71.20
2018-02-03T00:55:08.830Z,71.30
2018-02-03T00:57:36.671Z,71.20
2018-02-03T01:00:04.681Z,71.20
2018-02-03T01:02:32.571Z,71.20
2018-02-03T01:05:01.271Z,71.30
2018-02-03T01:07:29.159Z,71.30
2018-02-03T01:09:57.133Z,71.30
2018-02-03T01:12:25.020Z,71.30
2018-02-03T01:14:52.909Z,71.20
2018-02-03T01:17:20.938Z,71.20
2018-02-03T01:19:48.897Z,71.30
2018-02-03T01:22:16.842Z,71.30
2018-02-03T01:24:44.711Z,71.20
2018-02-03T01:27:12.710Z,71.20
2018-02-03T01:29:40.617Z,71.20
2018-02-03T01:32:08.582Z,71.10
2018-02-03T01:34:36.473Z,71.20
2018-02-03T01:37:05.208Z,71.00
2018-02-03T01:39:33.839Z,71.00
2018-02-03T01:42:02.543Z,71.20
2018-02-03T01:44:30.446Z,71.10
2018-02-03T01:46:59.083Z,71.00
2018-02-03T01:49:27.755Z,71.00
2018-02-03T01:51:56.407Z,70.90
2018-02-03T01:54:24.276Z,70.90
2018-02-03T01:56:52.210Z,70.90
2018-02-03T01:59:20.086Z,71.00
2018-02-03T02:01:48.110Z,71.00
2018-02-03T02:04:16.827Z,71.20
2018-02-03T02:06:44.745Z,71.20
2018-02-03T02:09:12.640Z,71.30
2018-02-03T02:11:41.300Z,71.40
2018-02-03T02:14:09.171Z,71.40
2018-02-03T02:16:37.075Z,71.30
2018-02-03T02:19:04.958Z,71.40
2018-02-03T02:21:32.932Z,71.70
2018-02-03T02:24:00.856Z,71.70
2018-02-03T02:26:29.528Z,71.80
2018-02-03T02:28:57.487Z,71.80
2018-02-03T02:31:25.399Z,72.70
2018-02-03T02:33:53.267Z,72.10
2018-02-03T02:36:21.182Z,72.20
2018-02-03T02:38:49.135Z,72.40
2018-02-03T02:41:17.158Z,72.40
2018-02-03T02:43:45.873Z,72.50
2018-02-03T02:46:13.777Z,72.50
2018-02-03T02:48:41.679Z,72.50
2018-02-03T02:51:10.414Z,72.60
2018-02-03T02:53:38.347Z,72.60
2018-02-03T02:56:06.307Z,72.60
2018-02-03T02:58:34.274Z,72.60
2018-02-03T03:01:02.162Z,72.50
2018-02-03T03:03:30.060Z,72.60
2018-02-03T03:08:32.014Z,72.50
2018-02-03T03:10:59.927Z,73.20
2018-02-03T03:13:27.841Z,72.60
2018-02-03T03:15:55.715Z,73.20
2018-02-03T03:18:23.667Z,72.40
2018-02-03T03:20:51.566Z,72.40
2018-02-03T03:23:19.465Z,72.50
2018-02-03T03:25:47.435Z,72.50
2018-02-03T03:28:15.310Z,72.50
2018-02-03T03:30:43.952Z,72.50
2018-02-03T03:33:11.835Z,72.60
2018-02-03T03:35:39.758Z,72.50
2018-02-03T03:38:07.664Z,72.50
2018-02-03T03:40:35.551Z,72.50
2018-02-03T03:43:03.514Z,72.50
2018-02-03T03:45:31.469Z,72.00
2018-02-03T03:47:59.418Z,72.60
2018-02-03T03:50:27.391Z,72.60
2018-02-03T03:52:55.289Z,72.60
2018-02-03T03:55:23.276Z,72.60
2018-02-03T03:57:52.063Z,72.60
2018-02-03T04:00:20.711Z,72.50
2018-02-03T04:02:48.701Z,73.20
2018-02-03T04:05:16.626Z,72.40
2018-02-03T04:07:44.634Z,72.40
2018-02-03T04:10:12.578Z,72.40
2018-02-03T04:12:40.466Z,72.40
2018-02-03T04:15:08.440Z,72.50
2018-02-03T04:17:36.405Z,72.40
2018-02-03T04:20:04.371Z,72.50
2018-02-03T04:22:32.258Z,72.50
2018-02-03T04:25:00.931Z,72.50
2018-02-03T04:27:28.875Z,72.50
2018-02-03T04:29:56.819Z,72.50
2018-02-03T04:32:24.806Z,72.50
2018-02-03T04:34:52.712Z,72.50
2018-02-03T04:37:21.427Z,72.60
2018-02-03T04:39:49.299Z,72.50
2018-02-03T04:42:17.415Z,72.50
2018-02-03T04:44:45.300Z,72.50
2018-02-03T04:47:13.219Z,72.50
2018-02-03T04:49:41.216Z,72.50
2018-02-03T04:52:09.164Z,72.50
2018-02-03T04:54:37.080Z,72.50
2018-02-03T04:57:05.760Z,72.40
2018-02-03T04:59:33.648Z,72.40
2018-02-03T05:02:02.385Z,72.40
2018-02-03T05:04:30.281Z,72.40
2018-02-03T05:06:58.171Z,72.40
2018-02-03T05:09:26.052Z,72.30
2018-02-03T05:11:53.999Z,72.40
2018-02-03T05:14:22.672Z,72.30
2018-02-03T05:16:51.345Z,72.30
2018-02-03T05:19:19.283Z,72.30
2018-02-03T05:21:47.177Z,72.30
2018-02-03T05:24:15.110Z,72.40
2018-02-03T05:26:43.036Z,73.10
2018-02-03T05:29:11.696Z,72.20
2018-02-03T05:31:39.612Z,72.10
2018-02-03T05:34:07.632Z,72.20
2018-02-03T05:36:35.617Z,72.20
2018-02-03T05:39:04.433Z,72.30
2018-02-03T05:41:32.346Z,72.30
2018-02-03T05:44:00.398Z,72.20
2018-02-03T05:46:28.342Z,72.10
2018-02-03T05:48:56.326Z,72.20
2018-02-03T05:51:24.225Z,72.20
2018-02-03T05:53:52.091Z,72.10
2018-02-03T05:56:20.840Z,71.70
2018-02-03T05:58:48.732Z,71.80
2018-02-03T06:01:16.591Z,71.80
2018-02-03T06:03:44.535Z,71.90
2018-02-03T06:06:12.539Z,71.80
2018-02-03T06:08:40.429Z,71.70
2018-02-03T06:11:08.293Z,71.70
2018-02-03T06:13:36.156Z,71.70
2018-02-03T06:16:04.143Z,71.80
2018-02-03T06:18:38.811Z,71.60
2018-02-03T06:21:06.675Z,71.60
2018-02-03T06:23:34.629Z,71.60
2018-02-03T06:26:02.513Z,71.60
2018-02-03T06:28:30.462Z,71.80
2018-02-03T06:30:58.407Z,71.80
2018-02-03T06:33:27.124Z,71.70
2018-02-03T06:35:55.098Z,71.70
2018-02-03T06:38:22.994Z,71.50
2018-02-03T06:40:50.878Z,71.40
2018-02-03T06:43:18.763Z,71.50
2018-02-03T06:45:47.382Z,71.50
2018-02-03T06:48:15.285Z,71.40
2018-02-03T06:50:43.178Z,71.40
2018-02-03T06:53:11.922Z,71.40
2018-02-03T06:55:39.831Z,71.40
2018-02-03T06:58:07.708Z,71.40
2018-02-03T07:00:36.372Z,71.30
2018-02-03T07:03:04.427Z,71.20
2018-02-03T07:05:32.295Z,71.30
2018-02-03T07:08:00.260Z,71.30
2018-02-03T07:10:28.345Z,71.30
2018-02-03T07:12:56.268Z,71.20
2018-02-03T07:15:24.364Z,71.40
2018-02-03T07:17:52.348Z,71.40
2018-02-03T07:20:20.454Z,71.30
2018-02-03T07:22:49.220Z,71.20
2018-02-03T07:25:17.206Z,71.20
2018-02-03T07:27:45.956Z,71.00
2018-02-03T07:30:14.524Z,71.00
2018-02-03T07:32:56.306Z,71.00
2018-02-03T07:35:24.165Z,71.00
2018-02-03T07:37:52.174Z,71.20
2018-02-03T07:40:20.089Z,71.30
2018-02-03T07:42:48.003Z,71.50
2018-02-03T07:45:15.903Z,71.40
2018-02-03T07:47:44.571Z,71.30
2018-02-03T07:50:12.995Z,71.20
2018-02-03T07:52:40.956Z,71.30
2018-02-03T07:55:08.861Z,71.20
2018-02-03T07:57:36.802Z,71.30
2018-02-03T08:00:04.788Z,71.40
2018-02-03T08:02:32.714Z,71.30
2018-02-03T08:05:01.384Z,71.30
2018-02-03T08:07:29.308Z,71.30
2018-02-03T08:09:57.265Z,71.20
2018-02-03T08:12:25.192Z,71.20
2018-02-03T08:14:53.877Z,71.30
2018-02-03T08:17:22.591Z,71.30
2018-02-03T08:19:52.926Z,71.40
2018-02-03T08:22:20.813Z,71.30
2018-02-03T08:24:48.771Z,71.20
2018-02-03T08:27:19.456Z,71.30
2018-02-03T08:29:50.011Z,71.20
2018-02-03T08:32:17.937Z,71.20
2018-02-03T08:34:46.615Z,71.40
2018-02-03T08:37:14.603Z,71.40
2018-02-03T08:39:42.557Z,71.40
2018-02-03T08:42:10.495Z,71.50
2018-02-03T08:44:38.354Z,72.30
2018-02-03T08:47:06.215Z,71.60
2018-02-03T08:49:34.075Z,71.60
2018-02-03T08:52:02.034Z,71.50
2018-02-03T08:54:29.888Z,71.50
2018-02-03T08:56:58.727Z,71.60
2018-02-03T08:59:27.477Z,71.60
2018-02-03T09:01:55.389Z,71.50
2018-02-03T09:04:24.968Z,71.50
2018-02-03T09:06:52.845Z,71.50
2018-02-03T09:09:20.787Z,71.60
2018-02-03T09:12:00.624Z,71.60
2018-02-03T09:14:29.318Z,71.60
2018-02-03T09:16:57.213Z,71.60
2018-02-03T09:19:25.114Z,71.60
2018-02-03T09:21:52.994Z,71.60
2018-02-03T09:24:21.675Z,71.70
2018-02-03T09:26:49.584Z,71.60
2018-02-03T09:29:18.987Z,71.70
2018-02-03T09:31:47.003Z,72.40
2018-02-03T09:34:14.907Z,71.70
2018-02-03T09:36:42.830Z,71.70
2018-02-03T09:39:10.733Z,71.70
2018-02-03T09:41:39.407Z,71.90
2018-02-03T09:44:08.040Z,71.80
2018-02-03T09:46:36.364Z,71.80
2018-02-03T09:49:04.276Z,71.70
2018-02-03T09:51:32.522Z,71.70
2018-02-03T09:54:01.184Z,71.60
2018-02-03T09:56:29.178Z,71.60
2018-02-03T09:58:57.147Z,71.60
2018-02-03T10:01:25.063Z,71.60
2018-02-03T10:03:52.953Z,71.60
2018-02-03T10:06:20.835Z,71.70
2018-02-03T10:08:49.470Z,71.80
2018-02-03T10:11:17.365Z,71.80
2018-02-03T10:13:45.300Z,71.80
2018-02-03T10:16:13.194Z,71.70
2018-02-03T10:18:41.079Z,71.60
2018-02-03T10:21:08.926Z,71.60
2018-02-03T10:23:36.840Z,71.70
2018-02-03T10:26:04.755Z,71.60
2018-02-03T10:28:32.607Z,71.70
2018-02-03T10:31:00.518Z,71.70
2018-02-03T10:33:29.241Z,71.80
2018-02-03T10:35:57.184Z,71.80
2018-02-03T10:38:26.059Z,71.90
2018-02-03T10:40:54.042Z,71.90
2018-02-03T10:43:22.745Z,71.30
2018-02-03T10:45:50.607Z,71.30
2018-02-03T10:48:18.567Z,71.30
2018-02-03T10:50:47.302Z,71.20
2018-02-03T10:53:15.217Z,71.10
2018-02-03T10:55:43.877Z,71.00
2018-02-03T10:58:11.795Z,71.00
2018-02-03T11:00:45.390Z,71.20
2018-02-03T11:03:13.366Z,71.10
2018-02-03T11:05:42.909Z,71.10
2018-02-03T11:08:10.909Z,71.20
2018-02-03T11:10:40.591Z,71.10
2018-02-03T11:13:08.543Z,71.10
2018-02-03T11:15:36.436Z,71.20
2018-02-03T11:18:04.353Z,71.10
2018-02-03T11:20:32.547Z,71.10
2018-02-03T11:23:00.518Z,71.20
2018-02-03T11:25:28.467Z,71.20
2018-02-03T11:27:56.382Z,71.20
2018-02-03T11:30:24.304Z,71.30
2018-02-03T11:32:52.167Z,71.30
2018-02-03T11:35:20.137Z,71.30
2018-02-03T11:37:48.155Z,71.40
2018-02-03T11:40:16.091Z,71.50
2018-02-03T11:42:44.006Z,71.60
2018-02-03T11:45:12.680Z,72.10
2018-02-03T11:47:40.600Z,71.30
2018-02-03T11:50:08.601Z,72.10
2018-02-03T11:52:36.494Z,71.20
2018-02-03T11:55:05.191Z,71.00
2018-02-03T11:57:33.842Z,71.00
2018-02-03T12:00:01.812Z,71.00
2018-02-03T12:02:29.767Z,71.10
2018-02-03T12:04:57.665Z,71.10
2018-02-03T12:07:25.815Z,71.20
2018-02-03T12:09:53.760Z,71.40
2018-02-03T12:12:21.680Z,71.30
2018-02-03T12:14:50.484Z,71.20
2018-02-03T12:17:18.468Z,71.20
2018-02-03T12:19:46.690Z,71.40
2018-02-03T12:22:14.819Z,71.40
2018-02-03T12:24:44.230Z,71.30
2018-02-03T12:27:12.244Z,71.20
2018-02-03T12:29:41.742Z,71.40
2018-02-03T12:32:09.790Z,72.30
2018-02-03T12:34:37.668Z,71.60
2018-02-03T12:37:05.677Z,71.40
2018-02-03T12:39:39.238Z,71.10
2018-02-03T12:42:07.195Z,71.10
2018-02-03T12:44:35.067Z,71.10
2018-02-03T12:47:03.050Z,71.40
2018-02-03T12:49:31.083Z,71.40
2018-02-03T12:51:59.101Z,71.30
2018-02-03T12:54:27.027Z,71.90
2018-02-03T12:56:55.001Z,71.30
2018-02-03T12:59:22.917Z,71.20
2018-02-03T13:01:51.640Z,71.10
2018-02-03T13:04:19.629Z,71.10
2018-02-03T13:06:47.549Z,71.00
2018-02-03T13:09:16.215Z,71.00
2018-02-03T13:11:44.155Z,71.00
2018-02-03T13:14:12.124Z,71.00
2018-02-03T13:16:40.019Z,71.00
2018-02-03T13:19:07.949Z,70.90
2018-02-03T13:21:35.862Z,71.00
2018-02-03T13:24:04.522Z,71.70
2018-02-03T13:26:32.453Z,71.00
2018-02-03T13:29:00.374Z,71.10
2018-02-03T13:31:28.315Z,71.20
2018-02-03T13:33:56.235Z,71.20
2018-02-03T13:36:24.277Z,71.20
2018-02-03T13:38:52.389Z,71.20
2018-02-03T13:41:20.867Z,71.30
2018-02-03T13:43:48.730Z,71.10
2018-02-03T13:46:16.711Z,71.10
2018-02-03T13:48:44.722Z,71.20
2018-02-03T13:51:12.626Z,71.20
2018-02-03T13:53:41.305Z,71.20
2018-02-03T13:56:10.724Z,71.40
2018-02-03T13:58:38.702Z,71.20
2018-02-03T14:01:06.734Z,71.30
2018-02-03T14:03:35.402Z,71.10
2018-02-03T14:06:03.402Z,71.00
2018-02-03T14:08:32.149Z,71.20
2018-02-03T14:11:00.845Z,71.20
2018-02-03T14:13:28.792Z,71.30
2018-02-03T14:15:56.764Z,71.20
2018-02-03T14:18:24.655Z,71.40
2018-02-03T14:20:52.607Z,71.40
2018-02-03T14:23:20.643Z,71.30
2018-02-03T14:25:54.209Z,71.30
2018-02-03T14:28:22.940Z,71.30
2018-02-03T14:30:50.834Z,71.30
2018-02-03T14:33:18.745Z,71.30
2018-02-03T14:35:47.522Z,71.20
2018-02-03T14:38:16.222Z,71.30
2018-02-03T14:40:44.130Z,71.10
2018-02-03T14:43:12.016Z,71.40
2018-02-03T14:45:39.972Z,71.40
2018-02-03T14:48:07.953Z,71.40
2018-02-03T14:50:35.854Z,71.40
2018-02-03T14:53:04.606Z,71.50
2018-02-03T14:55:32.555Z,71.50
2018-02-03T14:58:00.532Z,71.40
2018-02-03T15:00:28.532Z,71.50
2018-02-03T15:02:57.243Z,71.40
2018-02-03T15:05:25.110Z,71.40
2018-02-03T15:07:53.061Z,71.50
2018-02-03T15:10:21.775Z,71.40
2018-02-03T15:12:49.670Z,71.40
2018-02-03T15:15:17.716Z,71.40
2018-02-03T15:17:45.714Z,71.40
2018-02-03T15:20:13.591Z,71.50
2018-02-03T15:22:41.511Z,71.50
2018-02-03T15:25:09.491Z,71.50
2018-02-03T15:27:37.492Z,71.60
2018-02-03T15:30:05.392Z,71.50
2018-02-03T15:32:34.123Z,71.50
2018-02-03T15:35:02.111Z,71.50
2018-02-03T15:37:30.065Z,71.60
2018-02-03T15:39:57.977Z,71.50
2018-02-03T15:42:26.714Z,71.60
2018-02-03T15:44:54.668Z,71.50
2018-02-03T15:47:22.590Z,71.60
2018-02-03T15:49:50.527Z,71.60
2018-02-03T15:52:19.192Z,71.50
2018-02-03T15:54:47.126Z,71.50
2018-02-03T15:57:15.844Z,71.30
2018-02-03T15:59:43.804Z,71.30
2018-02-03T16:02:12.914Z,71.30
2018-02-03T16:04:41.633Z,71.40
2018-02-03T16:07:10.341Z,71.50
2018-02-03T16:09:39.067Z,71.50
2018-02-03T16:12:06.939Z,71.50
2018-02-03T16:14:34.886Z,71.50
2018-02-03T16:17:02.902Z,71.50
2018-02-03T16:19:30.985Z,71.50
2018-02-03T16:21:58.848Z,71.50
2018-02-03T16:24:26.734Z,71.50
2018-02-03T16:26:54.648Z,71.50
2018-02-03T16:29:22.635Z,71.60
2018-02-03T16:31:50.692Z,71.50
2018-02-03T16:34:18.613Z,71.60
2018-02-03T16:36:46.532Z,71.60
2018-02-03T16:39:14.539Z,71.50
2018-02-03T16:41:42.427Z,71.60
2018-02-03T16:44:11.124Z,71.60
2018-02-03T16:46:39.008Z,71.60
2018-02-03T16:49:06.882Z,71.60
2018-02-03T16:51:34.763Z,71.60
2018-02-03T16:54:02.728Z,71.60
2018-02-03T16:56:43.544Z,71.60
2018-02-03T16:59:12.290Z,71.60
2018-02-03T17:01:40.271Z,71.60
2018-02-03T17:04:08.222Z,71.60
2018-02-03T17:06:36.180Z,71.60
2018-02-03T17:09:04.232Z,71.70
2018-02-03T17:11:32.153Z,71.70
2018-02-03T17:14:00.046Z,71.70
2018-02-03T17:16:28.738Z,71.70
2018-02-03T17:18:57.497Z,71.70
2018-02-03T17:21:25.417Z,71.70
2018-02-03T17:23:53.418Z,71.70
2018-02-03T17:26:22.631Z,71.70
2018-02-03T17:28:50.538Z,71.70
2018-02-03T17:31:18.465Z,71.80
2018-02-03T17:33:46.374Z,71.70
2018-02-03T17:39:17.315Z,71.70
2018-02-03T17:41:45.941Z,71.70
2018-02-03T17:44:13.932Z,71.60
2018-02-03T17:46:47.461Z,71.60
2018-02-03T17:49:15.487Z,72.30
2018-02-03T17:51:43.427Z,71.70
2018-02-03T17:54:11.626Z,71.70
2018-02-03T17:56:45.062Z,71.60
2018-02-03T17:59:12.970Z,71.60
2018-02-03T18:01:40.873Z,71.70
2018-02-03T18:04:08.823Z,71.70
2018-02-03T18:06:42.541Z,71.70
2018-02-03T18:09:10.503Z,71.80
2018-02-03T18:11:38.435Z,71.80
2018-02-03T18:14:06.344Z,71.80
2018-02-03T18:16:34.275Z,71.80
2018-02-03T18:19:02.185Z,71.70
2018-02-03T18:21:30.120Z,71.70
2018-02-03T18:23:58.006Z,71.70
2018-02-03T18:26:25.917Z,71.70
2018-02-03T18:28:54.575Z,71.70
2018-02-03T18:31:22.467Z,71.60
2018-02-03T18:33:51.114Z,71.70
2018-02-03T18:36:18.995Z,71.60
2018-02-03T18:38:46.889Z,71.60
2018-02-03T18:41:15.527Z,71.80
2018-02-03T18:43:43.449Z,71.80
2018-02-03T18:46:12.204Z,71.70
2018-02-03T18:48:40.114Z,71.70
2018-02-03T18:51:08.096Z,71.70
2018-02-03T18:53:35.959Z,71.60
2018-02-03T18:56:03.854Z,71.60
2018-02-03T18:58:31.772Z,71.60
2018-02-03T19:01:00.560Z,71.60
2018-02-03T19:03:29.215Z,71.60
2018-02-03T19:05:57.163Z,71.50
2018-02-03T19:08:25.061Z,71.40
2018-02-03T19:10:52.968Z,71.40
2018-02-03T19:13:20.884Z,71.40
2018-02-03T19:15:48.805Z,71.40
2018-02-03T19:18:16.690Z,71.40
2018-02-03T19:20:44.566Z,71.40
2018-02-03T19:23:13.336Z,71.20
2018-02-03T19:25:41.227Z,71.20
2018-02-03T19:28:09.212Z,71.20
2018-02-03T19:30:37.112Z,71.30
2018-02-03T19:33:05.751Z,71.30
2018-02-03T19:35:33.778Z,71.30
2018-02-03T19:38:01.736Z,71.30
2018-02-03T19:40:30.375Z,71.20
2018-02-03T19:42:58.262Z,71.20
2018-02-03T19:45:26.214Z,71.20
2018-02-03T19:47:54.139Z,71.20
2018-02-03T19:50:22.027Z,71.20
2018-02-03T19:52:49.927Z,71.20
2018-02-03T19:55:17.834Z,71.20
2018-02-03T19:57:45.763Z,71.20
2018-02-03T20:00:13.818Z,71.20
2018-02-03T20:02:41.811Z,71.30
2018-02-03T20:05:09.729Z,71.30
2018-02-03T20:07:37.654Z,71.30
2018-02-03T20:10:06.471Z,71.40
2018-02-03T20:12:34.407Z,71.30
2018-02-03T20:15:03.096Z,71.50
2018-02-03T20:17:31.850Z,71.50
2018-02-03T20:19:59.719Z,71.50
2018-02-03T20:22:27.630Z,71.50
2018-02-03T20:24:56.407Z,71.40
2018-02-03T20:27:25.038Z,71.40
2018-02-03T20:29:52.991Z,71.40
2018-02-03T20:32:20.994Z,71.50
2018-02-03T20:34:48.878Z,71.40
2018-02-03T20:37:16.810Z,71.40
2018-02-03T20:39:44.766Z,71.40
2018-02-03T20:42:12.856Z,71.30
2018-02-03T20:44:40.916Z,71.30
2018-02-03T20:47:08.871Z,71.30
2018-02-03T20:49:36.750Z,71.20
2018-02-03T20:52:04.799Z,71.20
2018-02-03T20:54:32.817Z,71.20
2018-02-03T20:57:00.699Z,71.10
2018-02-03T20:59:28.598Z,71.20
2018-02-03T21:01:56.467Z,71.10
2018-02-03T21:04:24.366Z,71.20
2018-02-03T21:06:52.307Z,71.20
2018-02-03T21:09:20.191Z,71.30
2018-02-03T21:11:48.197Z,71.20
2018-02-03T21:14:16.063Z,71.20
2018-02-03T21:16:43.992Z,71.20
2018-02-03T21:19:11.966Z,71.10
2018-02-03T21:21:39.823Z,71.20
2018-02-03T21:24:09.088Z,71.10
2018-02-03T21:26:37.756Z,71.10
2018-02-03T21:29:05.671Z,71.10
2018-02-03T21:31:33.560Z,71.10
2018-02-03T21:34:01.434Z,71.00
2018-02-03T21:36:29.317Z,71.00
2018-02-03T21:38:57.309Z,71.10
2018-02-03T21:41:26.001Z,71.20
2018-02-03T21:43:54.742Z,71.20
2018-02-03T21:46:23.220Z,71.20
2018-02-03T21:48:51.197Z,71.30
2018-02-03T21:51:19.123Z,71.20
2018-02-03T21:53:47.022Z,71.20
2018-02-03T21:56:14.897Z,71.20
2018-02-03T21:58:42.821Z,71.20
2018-02-03T22:01:10.698Z,71.10
2018-02-03T22:03:38.930Z,71.20
2018-02-03T22:06:06.943Z,71.20
2018-02-03T22:08:34.819Z,71.10
2018-02-03T22:11:02.753Z,71.00
2018-02-03T22:13:31.468Z,71.00
2018-02-03T22:15:59.351Z,71.00
2018-02-03T22:18:27.260Z,71.00
2018-02-03T22:20:55.987Z,71.00
2018-02-03T22:23:23.903Z,71.00
2018-02-03T22:25:51.820Z,71.00
2018-02-03T22:28:19.732Z,71.00
2018-02-03T22:30:47.630Z,71.00
2018-02-03T22:33:16.294Z,70.90
2018-02-03T22:35:44.244Z,70.90
2018-02-03T22:38:12.138Z,70.80
2018-02-03T22:40:40.812Z,70.60
2018-02-03T22:43:08.730Z,70.60
2018-02-03T22:45:36.637Z,71.40
2018-02-03T22:48:04.511Z,70.60
2018-02-03T22:50:32.498Z,70.60
2018-02-03T22:53:01.228Z,70.50
2018-02-03T22:55:29.152Z,70.50
2018-02-03T22:57:57.927Z,70.50
2018-02-03T23:00:25.799Z,70.50
2018-02-03T23:02:59.381Z,70.50
2018-02-03T23:05:27.354Z,70.50
2018-02-03T23:07:55.331Z,70.50
2018-02-03T23:10:23.199Z,70.40
2018-02-03T23:12:51.109Z,70.40
2018-02-03T23:15:19.067Z,70.40
2018-02-03T23:17:47.023Z,70.40
2018-02-03T23:20:15.739Z,70.30
2018-02-03T23:22:43.683Z,70.30
2018-02-03T23:25:11.543Z,70.30
2018-02-03T23:27:40.208Z,70.30
2018-02-03T23:30:08.112Z,70.30
2018-02-03T23:32:35.981Z,70.60
2018-02-03T23:35:03.951Z,70.20
2018-02-03T23:37:31.814Z,70.30
2018-02-03T23:39:59.711Z,70.30
2018-02-03T23:42:27.664Z,70.40
2018-02-03T23:44:55.646Z,70.30
2018-02-03T23:47:23.519Z,70.20
2018-02-03T23:49:51.410Z,70.20
2018-02-03T23:52:19.294Z,70.10
2018-02-03T23:54:47.950Z,70.10
2018-02-03T23:57:15.849Z,70.10
2018-02-03T23:59:44.592Z,70.10
